sensor_id;sensor_type;location;lat;lon;timestamp;P1;durP1;ratioP1;P2;durP2;ratioP2
3280;SDS011;1652;51.318;6.202;2023-06-22T00:01:18;11.70;;;7.00;;
3280;SDS011;1652;51.318;6.202;2023-06-22T00:03:47;8.00;;;7.47;;
3280;SDS011;1652;51.318;6.202;2023-06-22T00:06:14;8.83;;;8.00;;
3280;SDS011;1652;51.318;6.202;2023-06-22T00:08:41;10.50;;;9.60;;
3280;SDS011;1652;51.318;6.202;2023-06-22T00:11:08;13.27;;;9.50;;
3280;SDS011;1652;51.318;6.202;2023-06-22T00:13:35;10.37;;;9.47;;
3280;SDS011;1652;51.318;6.202;2023-06-22T00:16:02;12.60;;;11.30;;
3280;SDS011;1652;51.318;6.202;2023-06-22T00:18:29;11.83;;;10.63;;
3280;SDS011;1652;51.318;6.202;2023-06-22T00:20:57;13.03;;;10.97;;
3280;SDS011;1652;51.318;6.202;2023-06-22T00:23:25;11.23;;;10.17;;
3280;SDS011;1652;51.318;6.202;2023-06-22T00:25:52;12.07;;;10.80;;
3280;SDS011;1652;51.318;6.202;2023-06-22T00:28:19;13.20;;;11.70;;
3280;SDS011;1652;51.318;6.202;2023-06-22T00:30:46;15.67;;;11.17;;
3280;SDS011;1652;51.318;6.202;2023-06-22T00:33:15;12.40;;;11.20;;
3280;SDS011;1652;51.318;6.202;2023-06-22T00:35:42;13.93;;;12.53;;
3280;SDS011;1652;51.318;6.202;2023-06-22T00:38:09;14.07;;;12.30;;
3280;SDS011;1652;51.318;6.202;2023-06-22T00:40:37;15.03;;;11.87;;
3280;SDS011;1652;51.318;6.202;2023-06-22T00:43:04;13.17;;;11.73;;
3280;SDS011;1652;51.318;6.202;2023-06-22T00:45:31;15.60;;;13.17;;
3280;SDS011;1652;51.318;6.202;2023-06-22T00:47:58;15.50;;;13.07;;
3280;SDS011;1652;51.318;6.202;2023-06-22T00:50:27;15.50;;;13.43;;
3280;SDS011;1652;51.318;6.202;2023-06-22T00:53:03;14.00;;;12.37;;
3280;SDS011;1652;51.318;6.202;2023-06-22T00:55:36;15.23;;;12.30;;
3280;SDS011;1652;51.318;6.202;2023-06-22T00:58:04;16.10;;;13.17;;
3280;SDS011;1652;51.318;6.202;2023-06-22T01:00:34;13.83;;;12.60;;
3280;SDS011;1652;51.318;6.202;2023-06-22T01:03:01;14.17;;;12.77;;
3280;SDS011;1652;51.318;6.202;2023-06-22T01:05:29;14.23;;;12.77;;
3280;SDS011;1652;51.318;6.202;2023-06-22T01:10:50;17.63;;;14.87;;
3280;SDS011;1652;51.318;6.202;2023-06-22T01:16:35;16.97;;;13.03;;
3280;SDS011;1652;51.318;6.202;2023-06-22T01:21:44;14.20;;;12.70;;
3280;SDS011;1652;51.318;6.202;2023-06-22T01:24:18;20.23;;;13.80;;
3280;SDS011;1652;51.318;6.202;2023-06-22T01:30:07;15.07;;;13.50;;
3280;SDS011;1652;51.318;6.202;2023-06-22T01:32:37;16.30;;;14.60;;
3280;SDS011;1652;51.318;6.202;2023-06-22T01:35:07;22.13;;;16.10;;
3280;SDS011;1652;51.318;6.202;2023-06-22T01:37:36;17.57;;;15.40;;
3280;SDS011;1652;51.318;6.202;2023-06-22T01:40:07;18.20;;;14.87;;
3280;SDS011;1652;51.318;6.202;2023-06-22T01:42:36;16.43;;;14.57;;
3280;SDS011;1652;51.318;6.202;2023-06-22T01:45:04;19.47;;;15.70;;
3280;SDS011;1652;51.318;6.202;2023-06-22T01:47:31;22.83;;;15.23;;
3280;SDS011;1652;51.318;6.202;2023-06-22T01:50:00;16.73;;;13.87;;
3280;SDS011;1652;51.318;6.202;2023-06-22T01:52:27;21.20;;;14.77;;
3280;SDS011;1652;51.318;6.202;2023-06-22T01:54:54;22.30;;;15.00;;
3280;SDS011;1652;51.318;6.202;2023-06-22T01:57:21;17.80;;;15.77;;
3280;SDS011;1652;51.318;6.202;2023-06-22T01:59:49;18.30;;;15.50;;
3280;SDS011;1652;51.318;6.202;2023-06-22T02:02:26;18.00;;;15.80;;
3280;SDS011;1652;51.318;6.202;2023-06-22T02:05:02;17.97;;;15.93;;
3280;SDS011;1652;51.318;6.202;2023-06-22T02:07:34;24.63;;;15.50;;
3280;SDS011;1652;51.318;6.202;2023-06-22T02:10:27;19.70;;;16.10;;
3280;SDS011;1652;51.318;6.202;2023-06-22T02:12:57;20.67;;;17.33;;
3280;SDS011;1652;51.318;6.202;2023-06-22T02:15:25;18.10;;;16.30;;
3280;SDS011;1652;51.318;6.202;2023-06-22T02:17:52;17.93;;;16.03;;
3280;SDS011;1652;51.318;6.202;2023-06-22T02:20:19;25.47;;;16.87;;
3280;SDS011;1652;51.318;6.202;2023-06-22T02:22:46;22.03;;;15.67;;
3280;SDS011;1652;51.318;6.202;2023-06-22T02:25:13;18.33;;;16.30;;
3280;SDS011;1652;51.318;6.202;2023-06-22T02:27:41;18.07;;;16.27;;
3280;SDS011;1652;51.318;6.202;2023-06-22T02:30:08;19.83;;;17.33;;
3280;SDS011;1652;51.318;6.202;2023-06-22T02:32:36;22.30;;;17.33;;
3280;SDS011;1652;51.318;6.202;2023-06-22T02:35:03;23.57;;;16.63;;
3280;SDS011;1652;51.318;6.202;2023-06-22T02:37:31;19.60;;;17.10;;
3280;SDS011;1652;51.318;6.202;2023-06-22T02:39:58;25.63;;;17.47;;
3280;SDS011;1652;51.318;6.202;2023-06-22T02:42:25;19.73;;;17.73;;
3280;SDS011;1652;51.318;6.202;2023-06-22T02:44:52;26.87;;;18.70;;
3280;SDS011;1652;51.318;6.202;2023-06-22T02:47:19;20.90;;;17.10;;
3280;SDS011;1652;51.318;6.202;2023-06-22T02:49:46;21.63;;;18.30;;
3280;SDS011;1652;51.318;6.202;2023-06-22T02:52:13;24.60;;;18.23;;
3280;SDS011;1652;51.318;6.202;2023-06-22T02:54:40;20.20;;;17.87;;
3280;SDS011;1652;51.318;6.202;2023-06-22T02:57:06;19.97;;;17.87;;
3280;SDS011;1652;51.318;6.202;2023-06-22T02:59:40;19.33;;;17.30;;
3280;SDS011;1652;51.318;6.202;2023-06-22T03:02:08;20.47;;;17.50;;
3280;SDS011;1652;51.318;6.202;2023-06-22T03:04:35;20.37;;;17.53;;
3280;SDS011;1652;51.318;6.202;2023-06-22T03:07:02;27.03;;;18.77;;
3280;SDS011;1652;51.318;6.202;2023-06-22T03:12:01;22.23;;;17.70;;
3280;SDS011;1652;51.318;6.202;2023-06-22T03:14:28;19.53;;;16.23;;
3280;SDS011;1652;51.318;6.202;2023-06-22T03:16:55;22.10;;;16.87;;
3280;SDS011;1652;51.318;6.202;2023-06-22T03:19:28;18.70;;;16.70;;
3280;SDS011;1652;51.318;6.202;2023-06-22T03:21:56;19.20;;;16.20;;
3280;SDS011;1652;51.318;6.202;2023-06-22T03:24:26;21.23;;;16.80;;
3280;SDS011;1652;51.318;6.202;2023-06-22T03:26:55;24.97;;;18.17;;
3280;SDS011;1652;51.318;6.202;2023-06-22T03:29:23;19.80;;;16.90;;
3280;SDS011;1652;51.318;6.202;2023-06-22T03:31:54;22.30;;;17.40;;
3280;SDS011;1652;51.318;6.202;2023-06-22T03:34:21;19.70;;;16.63;;
3280;SDS011;1652;51.318;6.202;2023-06-22T03:36:48;19.97;;;17.97;;
3280;SDS011;1652;51.318;6.202;2023-06-22T03:39:15;24.23;;;18.37;;
3280;SDS011;1652;51.318;6.202;2023-06-22T03:41:42;19.87;;;17.40;;
3280;SDS011;1652;51.318;6.202;2023-06-22T03:44:09;24.57;;;18.23;;
3280;SDS011;1652;51.318;6.202;2023-06-22T03:46:38;18.63;;;16.87;;
3280;SDS011;1652;51.318;6.202;2023-06-22T03:49:05;20.57;;;16.97;;
3280;SDS011;1652;51.318;6.202;2023-06-22T03:51:32;18.13;;;16.30;;
3280;SDS011;1652;51.318;6.202;2023-06-22T03:53:59;21.40;;;17.53;;
3280;SDS011;1652;51.318;6.202;2023-06-22T03:56:26;19.30;;;16.40;;
3280;SDS011;1652;51.318;6.202;2023-06-22T03:58:53;18.07;;;16.17;;
3280;SDS011;1652;51.318;6.202;2023-06-22T04:01:20;23.80;;;16.67;;
3280;SDS011;1652;51.318;6.202;2023-06-22T04:03:47;20.43;;;18.10;;
3280;SDS011;1652;51.318;6.202;2023-06-22T04:06:16;29.87;;;16.67;;
3280;SDS011;1652;51.318;6.202;2023-06-22T04:08:44;18.73;;;16.73;;
3280;SDS011;1652;51.318;6.202;2023-06-22T04:11:14;19.13;;;17.10;;
3280;SDS011;1652;51.318;6.202;2023-06-22T04:13:41;27.60;;;18.43;;
3280;SDS011;1652;51.318;6.202;2023-06-22T04:16:08;28.13;;;16.67;;
3280;SDS011;1652;51.318;6.202;2023-06-22T04:18:35;20.50;;;16.50;;
3280;SDS011;1652;51.318;6.202;2023-06-22T04:21:02;20.30;;;17.13;;
3280;SDS011;1652;51.318;6.202;2023-06-22T04:23:29;21.03;;;17.50;;
3280;SDS011;1652;51.318;6.202;2023-06-22T04:25:56;20.60;;;17.33;;
3280;SDS011;1652;51.318;6.202;2023-06-22T04:28:23;22.27;;;17.30;;
3280;SDS011;1652;51.318;6.202;2023-06-22T04:30:53;22.73;;;16.87;;
3280;SDS011;1652;51.318;6.202;2023-06-22T04:33:24;22.33;;;18.13;;
3280;SDS011;1652;51.318;6.202;2023-06-22T04:35:51;29.73;;;18.37;;
3280;SDS011;1652;51.318;6.202;2023-06-22T04:38:18;22.67;;;17.13;;
3280;SDS011;1652;51.318;6.202;2023-06-22T04:40:48;27.83;;;19.77;;
3280;SDS011;1652;51.318;6.202;2023-06-22T04:43:15;26.63;;;19.00;;
3280;SDS011;1652;51.318;6.202;2023-06-22T04:45:42;18.77;;;16.37;;
3280;SDS011;1652;51.318;6.202;2023-06-22T04:48:09;21.03;;;17.07;;
3280;SDS011;1652;51.318;6.202;2023-06-22T04:50:36;19.13;;;16.33;;
3280;SDS011;1652;51.318;6.202;2023-06-22T04:53:05;20.73;;;18.63;;
3280;SDS011;1652;51.318;6.202;2023-06-22T04:55:32;23.67;;;17.60;;
3280;SDS011;1652;51.318;6.202;2023-06-22T04:57:59;26.37;;;18.27;;
3280;SDS011;1652;51.318;6.202;2023-06-22T05:00:31;32.37;;;18.90;;
3280;SDS011;1652;51.318;6.202;2023-06-22T05:02:58;21.87;;;19.00;;
3280;SDS011;1652;51.318;6.202;2023-06-22T05:05:44;20.07;;;17.73;;
3280;SDS011;1652;51.318;6.202;2023-06-22T05:08:11;23.93;;;20.27;;
3280;SDS011;1652;51.318;6.202;2023-06-22T05:10:39;29.10;;;18.80;;
3280;SDS011;1652;51.318;6.202;2023-06-22T05:13:24;20.97;;;18.43;;
3280;SDS011;1652;51.318;6.202;2023-06-22T05:15:53;22.90;;;18.10;;
3280;SDS011;1652;51.318;6.202;2023-06-22T05:18:30;21.23;;;18.93;;
3280;SDS011;1652;51.318;6.202;2023-06-22T05:20:58;22.83;;;19.20;;
3280;SDS011;1652;51.318;6.202;2023-06-22T05:23:26;27.70;;;19.40;;
3280;SDS011;1652;51.318;6.202;2023-06-22T05:25:53;23.03;;;17.67;;
3280;SDS011;1652;51.318;6.202;2023-06-22T05:28:21;23.03;;;18.57;;
3280;SDS011;1652;51.318;6.202;2023-06-22T05:30:49;20.47;;;18.30;;
3280;SDS011;1652;51.318;6.202;2023-06-22T05:33:16;21.23;;;19.00;;
3280;SDS011;1652;51.318;6.202;2023-06-22T05:35:43;24.13;;;19.13;;
3280;SDS011;1652;51.318;6.202;2023-06-22T05:38:10;24.30;;;19.20;;
3280;SDS011;1652;51.318;6.202;2023-06-22T05:40:37;24.67;;;19.10;;
3280;SDS011;1652;51.318;6.202;2023-06-22T05:43:04;22.20;;;19.90;;
3280;SDS011;1652;51.318;6.202;2023-06-22T05:45:31;24.80;;;20.30;;
3280;SDS011;1652;51.318;6.202;2023-06-22T05:47:58;24.23;;;20.47;;
3280;SDS011;1652;51.318;6.202;2023-06-22T05:50:25;23.90;;;20.20;;
3280;SDS011;1652;51.318;6.202;2023-06-22T05:52:51;26.43;;;20.07;;
3280;SDS011;1652;51.318;6.202;2023-06-22T05:55:18;25.20;;;21.30;;
3280;SDS011;1652;51.318;6.202;2023-06-22T05:57:45;22.73;;;19.80;;
3280;SDS011;1652;51.318;6.202;2023-06-22T06:00:12;22.97;;;20.60;;
3280;SDS011;1652;51.318;6.202;2023-06-22T06:02:39;26.37;;;20.93;;
3280;SDS011;1652;51.318;6.202;2023-06-22T06:05:11;22.40;;;20.20;;
3280;SDS011;1652;51.318;6.202;2023-06-22T06:07:40;26.33;;;20.87;;
3280;SDS011;1652;51.318;6.202;2023-06-22T06:10:09;24.40;;;21.37;;
3280;SDS011;1652;51.318;6.202;2023-06-22T06:12:36;23.43;;;20.90;;
3280;SDS011;1652;51.318;6.202;2023-06-22T06:15:03;24.80;;;21.60;;
3280;SDS011;1652;51.318;6.202;2023-06-22T06:17:32;25.67;;;21.93;;
3280;SDS011;1652;51.318;6.202;2023-06-22T06:19:59;28.60;;;23.23;;
3280;SDS011;1652;51.318;6.202;2023-06-22T06:22:26;24.90;;;22.30;;
3280;SDS011;1652;51.318;6.202;2023-06-22T06:24:53;29.70;;;24.07;;
3280;SDS011;1652;51.318;6.202;2023-06-22T06:27:20;33.50;;;22.50;;
3280;SDS011;1652;51.318;6.202;2023-06-22T06:29:47;29.93;;;22.27;;
3280;SDS011;1652;51.318;6.202;2023-06-22T06:32:14;24.77;;;21.70;;
3280;SDS011;1652;51.318;6.202;2023-06-22T06:34:41;23.03;;;20.63;;
3280;SDS011;1652;51.318;6.202;2023-06-22T06:37:09;27.80;;;21.17;;
3280;SDS011;1652;51.318;6.202;2023-06-22T06:39:36;25.77;;;20.23;;
3280;SDS011;1652;51.318;6.202;2023-06-22T06:42:04;24.00;;;21.47;;
3280;SDS011;1652;51.318;6.202;2023-06-22T06:44:31;24.13;;;19.90;;
3280;SDS011;1652;51.318;6.202;2023-06-22T06:46:58;33.23;;;21.83;;
3280;SDS011;1652;51.318;6.202;2023-06-22T06:49:26;23.67;;;20.03;;
3280;SDS011;1652;51.318;6.202;2023-06-22T06:51:53;28.40;;;20.30;;
3280;SDS011;1652;51.318;6.202;2023-06-22T06:54:19;25.13;;;19.27;;
3280;SDS011;1652;51.318;6.202;2023-06-22T06:56:47;24.37;;;19.93;;
3280;SDS011;1652;51.318;6.202;2023-06-22T06:59:14;26.93;;;19.90;;
3280;SDS011;1652;51.318;6.202;2023-06-22T07:01:41;29.37;;;20.87;;
3280;SDS011;1652;51.318;6.202;2023-06-22T07:04:11;21.63;;;19.10;;
3280;SDS011;1652;51.318;6.202;2023-06-22T07:06:38;31.87;;;21.00;;
3280;SDS011;1652;51.318;6.202;2023-06-22T07:09:05;29.67;;;20.53;;
3280;SDS011;1652;51.318;6.202;2023-06-22T07:11:32;26.17;;;20.30;;
3280;SDS011;1652;51.318;6.202;2023-06-22T07:14:00;24.13;;;20.30;;
3280;SDS011;1652;51.318;6.202;2023-06-22T07:16:27;24.90;;;19.90;;
3280;SDS011;1652;51.318;6.202;2023-06-22T07:18:55;23.63;;;17.80;;
3280;SDS011;1652;51.318;6.202;2023-06-22T07:21:22;24.07;;;19.87;;
3280;SDS011;1652;51.318;6.202;2023-06-22T07:23:49;28.60;;;18.63;;
3280;SDS011;1652;51.318;6.202;2023-06-22T07:26:15;26.97;;;19.03;;
3280;SDS011;1652;51.318;6.202;2023-06-22T07:28:43;20.07;;;17.97;;
3280;SDS011;1652;51.318;6.202;2023-06-22T07:31:10;26.67;;;20.10;;
3280;SDS011;1652;51.318;6.202;2023-06-22T07:33:37;33.30;;;19.10;;
3280;SDS011;1652;51.318;6.202;2023-06-22T07:36:04;24.37;;;18.77;;
3280;SDS011;1652;51.318;6.202;2023-06-22T07:49:16;24.93;;;20.83;;
3280;SDS011;1652;51.318;6.202;2023-06-22T07:51:43;31.30;;;20.13;;
3280;SDS011;1652;51.318;6.202;2023-06-22T07:54:10;24.87;;;22.00;;
3280;SDS011;1652;51.318;6.202;2023-06-22T07:56:37;26.03;;;21.93;;
3280;SDS011;1652;51.318;6.202;2023-06-22T07:59:04;23.03;;;20.63;;
3280;SDS011;1652;51.318;6.202;2023-06-22T08:01:31;27.97;;;21.20;;
3280;SDS011;1652;51.318;6.202;2023-06-22T08:03:58;29.37;;;21.00;;
3280;SDS011;1652;51.318;6.202;2023-06-22T08:06:25;27.23;;;20.53;;
3280;SDS011;1652;51.318;6.202;2023-06-22T08:08:52;23.60;;;20.80;;
3280;SDS011;1652;51.318;6.202;2023-06-22T08:11:20;24.80;;;21.80;;
3280;SDS011;1652;51.318;6.202;2023-06-22T08:13:52;28.07;;;22.00;;
3280;SDS011;1652;51.318;6.202;2023-06-22T08:16:19;24.00;;;19.83;;
3280;SDS011;1652;51.318;6.202;2023-06-22T08:18:46;22.37;;;18.73;;
3280;SDS011;1652;51.318;6.202;2023-06-22T08:21:13;22.03;;;18.90;;
3280;SDS011;1652;51.318;6.202;2023-06-22T08:23:40;28.83;;;19.37;;
3280;SDS011;1652;51.318;6.202;2023-06-22T08:26:07;28.73;;;19.67;;
3280;SDS011;1652;51.318;6.202;2023-06-22T08:28:34;25.43;;;19.33;;
3280;SDS011;1652;51.318;6.202;2023-06-22T08:31:01;29.00;;;18.87;;
3280;SDS011;1652;51.318;6.202;2023-06-22T08:33:29;24.90;;;18.70;;
3280;SDS011;1652;51.318;6.202;2023-06-22T08:35:57;22.43;;;18.23;;
3280;SDS011;1652;51.318;6.202;2023-06-22T08:38:24;22.53;;;18.83;;
3280;SDS011;1652;51.318;6.202;2023-06-22T08:40:52;25.23;;;18.20;;
3280;SDS011;1652;51.318;6.202;2023-06-22T08:43:19;21.43;;;18.93;;
3280;SDS011;1652;51.318;6.202;2023-06-22T08:45:45;22.13;;;17.80;;
3280;SDS011;1652;51.318;6.202;2023-06-22T08:48:12;21.60;;;18.10;;
3280;SDS011;1652;51.318;6.202;2023-06-22T08:50:39;20.33;;;17.37;;
3280;SDS011;1652;51.318;6.202;2023-06-22T08:53:07;19.73;;;17.43;;
3280;SDS011;1652;51.318;6.202;2023-06-22T08:55:33;23.87;;;17.97;;
3280;SDS011;1652;51.318;6.202;2023-06-22T08:58:00;19.97;;;17.33;;
3280;SDS011;1652;51.318;6.202;2023-06-22T09:00:27;20.27;;;18.10;;
3280;SDS011;1652;51.318;6.202;2023-06-22T09:02:55;25.00;;;19.50;;
3280;SDS011;1652;51.318;6.202;2023-06-22T09:05:25;21.93;;;18.63;;
3280;SDS011;1652;51.318;6.202;2023-06-22T09:07:53;21.77;;;18.17;;
3280;SDS011;1652;51.318;6.202;2023-06-22T09:10:23;19.80;;;17.73;;
3280;SDS011;1652;51.318;6.202;2023-06-22T09:12:49;20.33;;;18.20;;
3280;SDS011;1652;51.318;6.202;2023-06-22T09:15:16;20.43;;;18.23;;
3280;SDS011;1652;51.318;6.202;2023-06-22T09:17:44;20.83;;;18.33;;
3280;SDS011;1652;51.318;6.202;2023-06-22T09:20:13;21.03;;;18.87;;
3280;SDS011;1652;51.318;6.202;2023-06-22T09:22:40;25.60;;;19.40;;
3280;SDS011;1652;51.318;6.202;2023-06-22T09:25:08;20.63;;;18.50;;
3280;SDS011;1652;51.318;6.202;2023-06-22T09:27:35;22.47;;;20.00;;
3280;SDS011;1652;51.318;6.202;2023-06-22T09:30:02;21.10;;;18.90;;
3280;SDS011;1652;51.318;6.202;2023-06-22T09:32:30;23.03;;;20.10;;
3280;SDS011;1652;51.318;6.202;2023-06-22T09:34:57;23.70;;;21.20;;
3280;SDS011;1652;51.318;6.202;2023-06-22T09:37:23;24.70;;;20.10;;
3280;SDS011;1652;51.318;6.202;2023-06-22T09:39:50;24.83;;;20.77;;
3280;SDS011;1652;51.318;6.202;2023-06-22T09:42:17;23.50;;;18.80;;
3280;SDS011;1652;51.318;6.202;2023-06-22T09:44:44;23.87;;;20.27;;
3280;SDS011;1652;51.318;6.202;2023-06-22T09:47:11;24.33;;;18.80;;
3280;SDS011;1652;51.318;6.202;2023-06-22T09:49:38;23.53;;;18.63;;
3280;SDS011;1652;51.318;6.202;2023-06-22T09:52:13;22.83;;;19.50;;
3280;SDS011;1652;51.318;6.202;2023-06-22T09:54:40;24.40;;;19.87;;
3280;SDS011;1652;51.318;6.202;2023-06-22T09:57:07;22.50;;;20.10;;
3280;SDS011;1652;51.318;6.202;2023-06-22T09:59:34;22.60;;;20.23;;
3280;SDS011;1652;51.318;6.202;2023-06-22T10:02:00;23.10;;;19.03;;
3280;SDS011;1652;51.318;6.202;2023-06-22T10:04:27;24.40;;;19.43;;
3280;SDS011;1652;51.318;6.202;2023-06-22T10:06:55;22.10;;;19.90;;
3280;SDS011;1652;51.318;6.202;2023-06-22T10:09:22;29.30;;;20.50;;
3280;SDS011;1652;51.318;6.202;2023-06-22T10:11:49;23.13;;;19.67;;
3280;SDS011;1652;51.318;6.202;2023-06-22T10:14:16;26.70;;;19.43;;
3280;SDS011;1652;51.318;6.202;2023-06-22T10:16:43;22.47;;;19.57;;
3280;SDS011;1652;51.318;6.202;2023-06-22T10:19:10;23.60;;;20.03;;
3280;SDS011;1652;51.318;6.202;2023-06-22T10:21:37;22.67;;;20.37;;
3280;SDS011;1652;51.318;6.202;2023-06-22T10:24:05;21.53;;;19.30;;
3280;SDS011;1652;51.318;6.202;2023-06-22T10:26:35;23.40;;;20.10;;
3280;SDS011;1652;51.318;6.202;2023-06-22T10:29:03;28.20;;;20.90;;
3280;SDS011;1652;51.318;6.202;2023-06-22T10:31:42;23.50;;;18.70;;
3280;SDS011;1652;51.318;6.202;2023-06-22T10:34:08;24.33;;;18.83;;
3280;SDS011;1652;51.318;6.202;2023-06-22T10:36:35;31.63;;;20.13;;
3280;SDS011;1652;51.318;6.202;2023-06-22T10:39:02;22.83;;;19.50;;
3280;SDS011;1652;51.318;6.202;2023-06-22T10:41:29;21.90;;;19.70;;
3280;SDS011;1652;51.318;6.202;2023-06-22T10:43:57;28.43;;;20.50;;
3280;SDS011;1652;51.318;6.202;2023-06-22T10:46:24;23.20;;;20.40;;
3280;SDS011;1652;51.318;6.202;2023-06-22T10:51:25;28.93;;;21.57;;
3280;SDS011;1652;51.318;6.202;2023-06-22T10:53:54;25.67;;;23.07;;
3280;SDS011;1652;51.318;6.202;2023-06-22T10:56:21;30.80;;;22.60;;
3280;SDS011;1652;51.318;6.202;2023-06-22T10:58:49;26.57;;;23.60;;
3280;SDS011;1652;51.318;6.202;2023-06-22T11:01:16;34.23;;;24.10;;
3280;SDS011;1652;51.318;6.202;2023-06-22T11:04:01;27.47;;;24.50;;
3280;SDS011;1652;51.318;6.202;2023-06-22T11:06:28;28.30;;;24.93;;
3280;SDS011;1652;51.318;6.202;2023-06-22T11:08:55;30.77;;;25.83;;
3280;SDS011;1652;51.318;6.202;2023-06-22T11:11:31;36.03;;;26.47;;
3280;SDS011;1652;51.318;6.202;2023-06-22T11:13:59;31.70;;;26.67;;
3280;SDS011;1652;51.318;6.202;2023-06-22T11:16:26;36.07;;;28.10;;
3280;SDS011;1652;51.318;6.202;2023-06-22T11:18:54;37.30;;;28.97;;
3280;SDS011;1652;51.318;6.202;2023-06-22T11:21:21;31.07;;;27.70;;
3280;SDS011;1652;51.318;6.202;2023-06-22T11:23:47;36.20;;;29.70;;
3280;SDS011;1652;51.318;6.202;2023-06-22T11:26:15;35.43;;;30.20;;
3280;SDS011;1652;51.318;6.202;2023-06-22T11:28:41;33.57;;;29.70;;
3280;SDS011;1652;51.318;6.202;2023-06-22T11:31:08;41.13;;;31.77;;
3280;SDS011;1652;51.318;6.202;2023-06-22T11:33:51;39.50;;;32.00;;
3280;SDS011;1652;51.318;6.202;2023-06-22T11:36:18;43.50;;;33.87;;
3280;SDS011;1652;51.318;6.202;2023-06-22T11:38:45;38.50;;;31.60;;
3280;SDS011;1652;51.318;6.202;2023-06-22T11:41:12;40.33;;;33.30;;
3280;SDS011;1652;51.318;6.202;2023-06-22T11:43:39;40.20;;;35.27;;
3280;SDS011;1652;51.318;6.202;2023-06-22T11:46:06;44.20;;;34.70;;
3280;SDS011;1652;51.318;6.202;2023-06-22T11:48:33;41.77;;;33.30;;
3280;SDS011;1652;51.318;6.202;2023-06-22T11:51:00;55.27;;;36.17;;
3280;SDS011;1652;51.318;6.202;2023-06-22T11:53:29;42.07;;;36.27;;
3280;SDS011;1652;51.318;6.202;2023-06-22T11:55:56;54.43;;;38.87;;
3280;SDS011;1652;51.318;6.202;2023-06-22T11:58:23;44.93;;;37.10;;
3280;SDS011;1652;51.318;6.202;2023-06-22T12:00:50;43.27;;;36.10;;
3280;SDS011;1652;51.318;6.202;2023-06-22T12:03:19;39.67;;;33.73;;
3280;SDS011;1652;51.318;6.202;2023-06-22T12:05:49;42.30;;;35.43;;
3280;SDS011;1652;51.318;6.202;2023-06-22T12:08:18;39.73;;;32.47;;
3280;SDS011;1652;51.318;6.202;2023-06-22T12:10:45;35.87;;;30.97;;
3280;SDS011;1652;51.318;6.202;2023-06-22T12:13:12;40.77;;;31.50;;
3280;SDS011;1652;51.318;6.202;2023-06-22T12:15:39;36.37;;;30.33;;
3280;SDS011;1652;51.318;6.202;2023-06-22T12:18:06;36.20;;;30.40;;
3280;SDS011;1652;51.318;6.202;2023-06-22T12:20:33;33.33;;;29.80;;
3280;SDS011;1652;51.318;6.202;2023-06-22T12:23:00;34.87;;;29.10;;
3280;SDS011;1652;51.318;6.202;2023-06-22T12:25:27;32.13;;;28.73;;
3280;SDS011;1652;51.318;6.202;2023-06-22T12:27:54;32.57;;;28.93;;
3280;SDS011;1652;51.318;6.202;2023-06-22T12:30:21;40.70;;;30.73;;
3280;SDS011;1652;51.318;6.202;2023-06-22T12:32:48;32.20;;;28.70;;
3280;SDS011;1652;51.318;6.202;2023-06-22T12:35:18;35.63;;;29.70;;
3280;SDS011;1652;51.318;6.202;2023-06-22T12:37:45;40.73;;;29.90;;
3280;SDS011;1652;51.318;6.202;2023-06-22T12:40:12;35.53;;;31.87;;
3280;SDS011;1652;51.318;6.202;2023-06-22T12:42:39;35.17;;;30.67;;
3280;SDS011;1652;51.318;6.202;2023-06-22T12:45:06;37.83;;;31.40;;
3280;SDS011;1652;51.318;6.202;2023-06-22T12:47:33;34.33;;;30.63;;
3280;SDS011;1652;51.318;6.202;2023-06-22T12:50:00;33.07;;;28.50;;
3280;SDS011;1652;51.318;6.202;2023-06-22T12:52:29;34.03;;;28.93;;
3280;SDS011;1652;51.318;6.202;2023-06-22T12:54:57;32.33;;;28.93;;
3280;SDS011;1652;51.318;6.202;2023-06-22T12:57:24;32.83;;;29.43;;
3280;SDS011;1652;51.318;6.202;2023-06-22T12:59:51;34.70;;;29.50;;
3280;SDS011;1652;51.318;6.202;2023-06-22T13:02:20;34.30;;;29.93;;
3280;SDS011;1652;51.318;6.202;2023-06-22T13:04:47;34.00;;;30.40;;
3280;SDS011;1652;51.318;6.202;2023-06-22T13:07:14;34.87;;;27.77;;
3280;SDS011;1652;51.318;6.202;2023-06-22T13:09:49;37.47;;;32.30;;
3280;SDS011;1652;51.318;6.202;2023-06-22T13:12:20;37.80;;;31.93;;
3280;SDS011;1652;51.318;6.202;2023-06-22T13:14:47;35.23;;;30.97;;
3280;SDS011;1652;51.318;6.202;2023-06-22T13:17:15;38.17;;;31.63;;
3280;SDS011;1652;51.318;6.202;2023-06-22T13:19:42;38.67;;;34.13;;
3280;SDS011;1652;51.318;6.202;2023-06-22T13:22:25;39.00;;;34.33;;
3280;SDS011;1652;51.318;6.202;2023-06-22T13:24:55;38.47;;;31.87;;
3280;SDS011;1652;51.318;6.202;2023-06-22T13:27:23;41.50;;;35.20;;
3280;SDS011;1652;51.318;6.202;2023-06-22T13:29:50;41.10;;;34.20;;
3280;SDS011;1652;51.318;6.202;2023-06-22T13:32:17;38.40;;;33.23;;
3280;SDS011;1652;51.318;6.202;2023-06-22T13:34:44;41.57;;;33.87;;
3280;SDS011;1652;51.318;6.202;2023-06-22T13:37:11;41.47;;;33.30;;
3280;SDS011;1652;51.318;6.202;2023-06-22T13:39:38;41.13;;;32.50;;
3280;SDS011;1652;51.318;6.202;2023-06-22T13:42:05;35.57;;;30.30;;
3280;SDS011;1652;51.318;6.202;2023-06-22T13:44:32;38.57;;;34.37;;
3280;SDS011;1652;51.318;6.202;2023-06-22T13:46:59;37.97;;;33.83;;
3280;SDS011;1652;51.318;6.202;2023-06-22T13:49:26;40.30;;;31.50;;
3280;SDS011;1652;51.318;6.202;2023-06-22T13:51:55;36.53;;;31.60;;
3280;SDS011;1652;51.318;6.202;2023-06-22T13:54:22;40.23;;;32.97;;
3280;SDS011;1652;51.318;6.202;2023-06-22T13:56:51;33.37;;;28.90;;
3280;SDS011;1652;51.318;6.202;2023-06-22T13:59:18;34.17;;;29.53;;
3280;SDS011;1652;51.318;6.202;2023-06-22T14:01:46;39.23;;;29.97;;
3280;SDS011;1652;51.318;6.202;2023-06-22T14:04:13;32.90;;;28.40;;
3280;SDS011;1652;51.318;6.202;2023-06-22T14:06:40;33.20;;;28.30;;
3280;SDS011;1652;51.318;6.202;2023-06-22T14:09:07;32.63;;;28.63;;
3280;SDS011;1652;51.318;6.202;2023-06-22T14:11:33;38.50;;;28.13;;
3280;SDS011;1652;51.318;6.202;2023-06-22T14:14:00;32.13;;;28.80;;
3280;SDS011;1652;51.318;6.202;2023-06-22T14:16:27;44.33;;;29.17;;
3280;SDS011;1652;51.318;6.202;2023-06-22T14:18:54;33.20;;;29.40;;
3280;SDS011;1652;51.318;6.202;2023-06-22T14:21:23;35.40;;;27.67;;
3280;SDS011;1652;51.318;6.202;2023-06-22T14:23:52;31.03;;;27.03;;
3280;SDS011;1652;51.318;6.202;2023-06-22T14:26:19;31.40;;;26.77;;
3280;SDS011;1652;51.318;6.202;2023-06-22T14:28:46;35.67;;;27.23;;
3280;SDS011;1652;51.318;6.202;2023-06-22T14:31:17;31.70;;;27.23;;
3280;SDS011;1652;51.318;6.202;2023-06-22T14:33:46;29.87;;;26.83;;
3280;SDS011;1652;51.318;6.202;2023-06-22T14:36:17;29.03;;;25.30;;
3280;SDS011;1652;51.318;6.202;2023-06-22T14:38:44;29.03;;;26.00;;
3280;SDS011;1652;51.318;6.202;2023-06-22T14:41:13;30.90;;;26.70;;
3280;SDS011;1652;51.318;6.202;2023-06-22T14:43:47;34.67;;;27.07;;
3280;SDS011;1652;51.318;6.202;2023-06-22T14:46:17;29.70;;;25.63;;
3280;SDS011;1652;51.318;6.202;2023-06-22T14:51:13;29.33;;;26.13;;
3280;SDS011;1652;51.318;6.202;2023-06-22T14:53:45;35.97;;;30.20;;
3280;SDS011;1652;51.318;6.202;2023-06-22T14:56:12;37.53;;;29.87;;
3280;SDS011;1652;51.318;6.202;2023-06-22T14:58:41;46.03;;;37.10;;
3280;SDS011;1652;51.318;6.202;2023-06-22T15:01:13;36.87;;;31.53;;
3280;SDS011;1652;51.318;6.202;2023-06-22T15:03:43;39.87;;;30.23;;
3280;SDS011;1652;51.318;6.202;2023-06-22T15:06:10;48.20;;;35.03;;
3280;SDS011;1652;51.318;6.202;2023-06-22T15:08:40;50.50;;;39.53;;
3280;SDS011;1652;51.318;6.202;2023-06-22T15:11:07;52.73;;;38.43;;
3280;SDS011;1652;51.318;6.202;2023-06-22T15:13:35;59.20;;;39.10;;
3280;SDS011;1652;51.318;6.202;2023-06-22T15:16:04;52.17;;;37.67;;
3280;SDS011;1652;51.318;6.202;2023-06-22T15:18:32;64.07;;;42.30;;
3280;SDS011;1652;51.318;6.202;2023-06-22T15:21:02;69.77;;;47.80;;
3280;SDS011;1652;51.318;6.202;2023-06-22T15:23:30;66.90;;;44.17;;